sensor_id;sensor_type;location;lat;lon;timestamp;P1;durP1;ratioP1;P2;durP2;ratioP2
80653;SDS011;70020;45.524;10.240;2023-11-21T00:00:12;33.00;;;21.73;;
80653;SDS011;70020;45.524;10.240;2023-11-21T00:02:39;35.53;;;22.27;;
80653;SDS011;70020;45.524;10.240;2023-11-21T00:05:09;30.80;;;22.00;;
80653;SDS011;70020;45.524;10.240;2023-11-21T00:07:36;32.45;;;21.85;;
80653;SDS011;70020;45.524;10.240;2023-11-21T00:10:02;34.08;;;23.20;;
80653;SDS011;70020;45.524;10.240;2023-11-21T00:12:30;32.40;;;21.92;;
80653;SDS011;70020;45.524;10.240;2023-11-21T00:14:56;33.50;;;21.40;;
80653;SDS011;70020;45.524;10.240;2023-11-21T00:17:22;34.03;;;22.80;;
80653;SDS011;70020;45.524;10.240;2023-11-21T00:19:48;33.37;;;22.47;;
80653;SDS011;70020;45.524;10.240;2023-11-21T00:22:14;34.05;;;23.33;;
80653;SDS011;70020;45.524;10.240;2023-11-21T00:24:41;34.22;;;23.13;;
80653;SDS011;70020;45.524;10.240;2023-11-21T00:27:06;36.03;;;23.30;;
80653;SDS011;70020;45.524;10.240;2023-11-21T00:29:33;35.08;;;23.48;;
80653;SDS011;70020;45.524;10.240;2023-11-21T00:31:59;32.25;;;22.02;;
80653;SDS011;70020;45.524;10.240;2023-11-21T00:34:25;36.50;;;23.25;;
80653;SDS011;70020;45.524;10.240;2023-11-21T00:36:51;35.63;;;23.60;;
80653;SDS011;70020;45.524;10.240;2023-11-21T00:39:17;35.90;;;23.83;;
80653;SDS011;70020;45.524;10.240;2023-11-21T00:41:43;34.83;;;23.17;;
80653;SDS011;70020;45.524;10.240;2023-11-21T00:44:10;35.30;;;23.33;;
80653;SDS011;70020;45.524;10.240;2023-11-21T00:49:02;38.30;;;22.95;;
80653;SDS011;70020;45.524;10.240;2023-11-21T00:51:29;34.22;;;22.73;;
80653;SDS011;70020;45.524;10.240;2023-11-21T00:53:55;42.33;;;23.13;;
80653;SDS011;70020;45.524;10.240;2023-11-21T00:56:21;37.88;;;24.67;;
80653;SDS011;70020;45.524;10.240;2023-11-21T00:58:47;34.35;;;23.60;;
80653;SDS011;70020;45.524;10.240;2023-11-21T01:01:17;34.08;;;23.30;;
80653;SDS011;70020;45.524;10.240;2023-11-21T01:03:45;33.85;;;23.77;;
80653;SDS011;70020;45.524;10.240;2023-11-21T01:06:11;35.53;;;24.17;;
80653;SDS011;70020;45.524;10.240;2023-11-21T01:08:37;35.95;;;23.75;;
80653;SDS011;70020;45.524;10.240;2023-11-21T01:11:03;35.80;;;23.48;;
80653;SDS011;70020;45.524;10.240;2023-11-21T01:13:33;32.55;;;22.98;;
80653;SDS011;70020;45.524;10.240;2023-11-21T01:16:00;32.67;;;22.58;;
80653;SDS011;70020;45.524;10.240;2023-11-21T01:18:26;35.25;;;22.83;;
80653;SDS011;70020;45.524;10.240;2023-11-21T01:20:52;34.72;;;23.20;;
80653;SDS011;70020;45.524;10.240;2023-11-21T01:23:18;33.47;;;23.10;;
80653;SDS011;70020;45.524;10.240;2023-11-21T01:28:11;40.03;;;24.02;;
80653;SDS011;70020;45.524;10.240;2023-11-21T01:30:37;39.33;;;23.25;;
80653;SDS011;70020;45.524;10.240;2023-11-21T01:33:02;36.73;;;24.50;;
80653;SDS011;70020;45.524;10.240;2023-11-21T01:35:29;42.67;;;24.17;;
80653;SDS011;70020;45.524;10.240;2023-11-21T01:37:55;38.25;;;24.63;;
80653;SDS011;70020;45.524;10.240;2023-11-21T01:40:25;38.30;;;25.70;;
80653;SDS011;70020;45.524;10.240;2023-11-21T01:42:52;38.63;;;24.97;;
80653;SDS011;70020;45.524;10.240;2023-11-21T01:45:18;39.97;;;26.52;;
80653;SDS011;70020;45.524;10.240;2023-11-21T01:47:44;40.13;;;26.02;;
80653;SDS011;70020;45.524;10.240;2023-11-21T01:50:13;33.63;;;24.88;;
80653;SDS011;70020;45.524;10.240;2023-11-21T01:52:46;37.88;;;25.13;;
80653;SDS011;70020;45.524;10.240;2023-11-21T01:55:13;37.55;;;24.05;;
80653;SDS011;70020;45.524;10.240;2023-11-21T01:57:43;39.88;;;25.38;;
80653;SDS011;70020;45.524;10.240;2023-11-21T02:00:09;37.15;;;25.33;;
80653;SDS011;70020;45.524;10.240;2023-11-21T02:02:44;38.25;;;24.63;;
80653;SDS011;70020;45.524;10.240;2023-11-21T02:05:13;37.05;;;24.80;;
80653;SDS011;70020;45.524;10.240;2023-11-21T02:07:47;38.47;;;25.88;;
80653;SDS011;70020;45.524;10.240;2023-11-21T02:10:13;38.03;;;24.67;;
80653;SDS011;70020;45.524;10.240;2023-11-21T02:12:40;34.10;;;24.85;;
80653;SDS011;70020;45.524;10.240;2023-11-21T02:15:07;37.05;;;25.30;;
80653;SDS011;70020;45.524;10.240;2023-11-21T02:17:40;34.50;;;24.73;;
80653;SDS011;70020;45.524;10.240;2023-11-21T02:20:08;34.63;;;23.92;;
80653;SDS011;70020;45.524;10.240;2023-11-21T02:22:41;36.80;;;24.83;;
80653;SDS011;70020;45.524;10.240;2023-11-21T02:25:08;36.78;;;25.65;;
80653;SDS011;70020;45.524;10.240;2023-11-21T02:27:34;36.55;;;24.77;;
80653;SDS011;70020;45.524;10.240;2023-11-21T02:29:59;35.17;;;24.50;;
80653;SDS011;70020;45.524;10.240;2023-11-21T02:32:26;37.35;;;25.77;;
80653;SDS011;70020;45.524;10.240;2023-11-21T02:34:52;37.50;;;25.77;;
80653;SDS011;70020;45.524;10.240;2023-11-21T02:37:18;37.58;;;25.55;;
80653;SDS011;70020;45.524;10.240;2023-11-21T02:39:44;36.88;;;24.98;;
80653;SDS011;70020;45.524;10.240;2023-11-21T02:42:11;37.10;;;24.38;;
80653;SDS011;70020;45.524;10.240;2023-11-21T02:44:38;33.83;;;24.42;;
80653;SDS011;70020;45.524;10.240;2023-11-21T02:47:04;36.42;;;24.67;;
80653;SDS011;70020;45.524;10.240;2023-11-21T02:49:30;35.65;;;23.52;;
80653;SDS011;70020;45.524;10.240;2023-11-21T02:51:56;37.45;;;24.65;;
80653;SDS011;70020;45.524;10.240;2023-11-21T02:54:22;35.33;;;23.85;;
80653;SDS011;70020;45.524;10.240;2023-11-21T02:56:49;36.05;;;24.02;;
80653;SDS011;70020;45.524;10.240;2023-11-21T02:59:15;35.13;;;23.35;;
80653;SDS011;70020;45.524;10.240;2023-11-21T03:01:41;38.25;;;24.60;;
80653;SDS011;70020;45.524;10.240;2023-11-21T03:04:08;35.03;;;23.73;;
80653;SDS011;70020;45.524;10.240;2023-11-21T03:06:34;36.53;;;24.25;;
80653;SDS011;70020;45.524;10.240;2023-11-21T03:09:00;36.70;;;23.63;;
80653;SDS011;70020;45.524;10.240;2023-11-21T03:11:26;33.80;;;24.33;;
80653;SDS011;70020;45.524;10.240;2023-11-21T03:13:52;33.75;;;24.40;;
80653;SDS011;70020;45.524;10.240;2023-11-21T03:16:18;39.40;;;24.10;;
80653;SDS011;70020;45.524;10.240;2023-11-21T03:18:44;35.97;;;24.80;;
80653;SDS011;70020;45.524;10.240;2023-11-21T03:21:10;34.60;;;23.70;;
80653;SDS011;70020;45.524;10.240;2023-11-21T03:23:36;34.17;;;23.87;;
80653;SDS011;70020;45.524;10.240;2023-11-21T03:26:02;31.30;;;21.85;;
80653;SDS011;70020;45.524;10.240;2023-11-21T03:28:29;31.50;;;21.45;;
80653;SDS011;70020;45.524;10.240;2023-11-21T03:30:55;34.08;;;21.80;;
80653;SDS011;70020;45.524;10.240;2023-11-21T03:33:21;33.55;;;23.08;;
80653;SDS011;70020;45.524;10.240;2023-11-21T03:35:47;30.00;;;22.70;;
80653;SDS011;70020;45.524;10.240;2023-11-21T03:38:13;31.80;;;21.90;;
80653;SDS011;70020;45.524;10.240;2023-11-21T03:40:39;32.03;;;22.40;;
80653;SDS011;70020;45.524;10.240;2023-11-21T03:43:05;36.22;;;23.35;;
80653;SDS011;70020;45.524;10.240;2023-11-21T03:45:32;33.75;;;22.80;;
80653;SDS011;70020;45.524;10.240;2023-11-21T03:47:57;32.58;;;23.80;;
80653;SDS011;70020;45.524;10.240;2023-11-21T03:50:25;32.28;;;22.98;;
80653;SDS011;70020;45.524;10.240;2023-11-21T03:52:51;31.83;;;22.70;;
80653;SDS011;70020;45.524;10.240;2023-11-21T03:55:17;32.90;;;22.40;;
80653;SDS011;70020;45.524;10.240;2023-11-21T04:00:09;35.80;;;21.40;;
80653;SDS011;70020;45.524;10.240;2023-11-21T04:02:35;31.20;;;21.88;;
80653;SDS011;70020;45.524;10.240;2023-11-21T04:05:01;33.13;;;21.90;;
80653;SDS011;70020;45.524;10.240;2023-11-21T04:09:53;33.03;;;21.80;;
80653;SDS011;70020;45.524;10.240;2023-11-21T04:12:19;33.55;;;21.85;;
80653;SDS011;70020;45.524;10.240;2023-11-21T04:14:45;34.50;;;23.27;;
80653;SDS011;70020;45.524;10.240;2023-11-21T04:17:11;28.70;;;21.85;;
80653;SDS011;70020;45.524;10.240;2023-11-21T04:19:37;37.10;;;23.52;;
80653;SDS011;70020;45.524;10.240;2023-11-21T04:22:02;34.35;;;23.13;;
80653;SDS011;70020;45.524;10.240;2023-11-21T04:24:29;32.03;;;21.80;;
80653;SDS011;70020;45.524;10.240;2023-11-21T04:26:55;36.22;;;22.52;;
80653;SDS011;70020;45.524;10.240;2023-11-21T04:29:20;32.97;;;22.93;;
80653;SDS011;70020;45.524;10.240;2023-11-21T04:31:46;35.00;;;21.92;;
80653;SDS011;70020;45.524;10.240;2023-11-21T04:34:14;33.53;;;22.38;;
80653;SDS011;70020;45.524;10.240;2023-11-21T04:36:40;34.60;;;22.45;;
80653;SDS011;70020;45.524;10.240;2023-11-21T04:39:06;31.97;;;22.53;;
80653;SDS011;70020;45.524;10.240;2023-11-21T04:41:32;33.38;;;23.05;;
80653;SDS011;70020;45.524;10.240;2023-11-21T04:43:58;35.50;;;22.02;;
80653;SDS011;70020;45.524;10.240;2023-11-21T04:46:25;31.70;;;22.05;;
80653;SDS011;70020;45.524;10.240;2023-11-21T04:48:51;33.10;;;21.77;;
80653;SDS011;70020;45.524;10.240;2023-11-21T04:51:17;29.97;;;21.83;;
80653;SDS011;70020;45.524;10.240;2023-11-21T04:53:43;32.00;;;21.42;;
80653;SDS011;70020;45.524;10.240;2023-11-21T04:56:08;31.37;;;21.93;;
80653;SDS011;70020;45.524;10.240;2023-11-21T04:58:35;37.33;;;21.55;;
80653;SDS011;70020;45.524;10.240;2023-11-21T05:01:01;34.65;;;21.75;;
80653;SDS011;70020;45.524;10.240;2023-11-21T05:03:26;29.52;;;20.75;;
80653;SDS011;70020;45.524;10.240;2023-11-21T05:05:54;31.70;;;21.58;;
80653;SDS011;70020;45.524;10.240;2023-11-21T05:10:47;32.25;;;22.45;;
80653;SDS011;70020;45.524;10.240;2023-11-21T05:15:42;31.25;;;21.60;;
80653;SDS011;70020;45.524;10.240;2023-11-21T05:18:08;32.72;;;22.13;;
80653;SDS011;70020;45.524;10.240;2023-11-21T05:23:00;31.40;;;20.83;;
80653;SDS011;70020;45.524;10.240;2023-11-21T05:25:26;35.95;;;22.23;;
80653;SDS011;70020;45.524;10.240;2023-11-21T05:27:52;31.83;;;22.65;;
80653;SDS011;70020;45.524;10.240;2023-11-21T05:30:19;40.85;;;25.75;;
80653;SDS011;70020;45.524;10.240;2023-11-21T05:32:46;37.58;;;25.83;;
80653;SDS011;70020;45.524;10.240;2023-11-21T05:35:12;39.30;;;24.13;;
80653;SDS011;70020;45.524;10.240;2023-11-21T05:37:41;37.05;;;25.77;;
80653;SDS011;70020;45.524;10.240;2023-11-21T05:42:34;36.58;;;25.52;;
80653;SDS011;70020;45.524;10.240;2023-11-21T05:45:00;38.22;;;25.77;;
80653;SDS011;70020;45.524;10.240;2023-11-21T05:47:39;39.03;;;24.85;;
80653;SDS011;70020;45.524;10.240;2023-11-21T05:50:06;41.05;;;26.42;;
80653;SDS011;70020;45.524;10.240;2023-11-21T05:52:36;37.15;;;25.45;;
80653;SDS011;70020;45.524;10.240;2023-11-21T05:55:02;37.35;;;25.20;;
80653;SDS011;70020;45.524;10.240;2023-11-21T05:57:27;40.97;;;25.53;;
80653;SDS011;70020;45.524;10.240;2023-11-21T05:59:54;35.33;;;24.52;;
80653;SDS011;70020;45.524;10.240;2023-11-21T06:02:20;35.38;;;22.85;;
80653;SDS011;70020;45.524;10.240;2023-11-21T06:04:46;39.63;;;24.33;;
80653;SDS011;70020;45.524;10.240;2023-11-21T06:07:12;32.83;;;22.73;;
80653;SDS011;70020;45.524;10.240;2023-11-21T06:09:38;38.17;;;23.77;;
80653;SDS011;70020;45.524;10.240;2023-11-21T06:12:04;36.97;;;24.40;;
80653;SDS011;70020;45.524;10.240;2023-11-21T06:14:32;35.33;;;23.20;;
80653;SDS011;70020;45.524;10.240;2023-11-21T06:17:00;37.25;;;24.63;;
80653;SDS011;70020;45.524;10.240;2023-11-21T06:19:26;34.25;;;23.67;;
80653;SDS011;70020;45.524;10.240;2023-11-21T06:21:52;35.47;;;23.45;;
80653;SDS011;70020;45.524;10.240;2023-11-21T06:24:19;37.20;;;22.88;;
80653;SDS011;70020;45.524;10.240;2023-11-21T06:26:46;33.05;;;22.98;;
80653;SDS011;70020;45.524;10.240;2023-11-21T06:29:13;35.70;;;22.67;;
80653;SDS011;70020;45.524;10.240;2023-11-21T06:31:39;38.45;;;23.38;;
80653;SDS011;70020;45.524;10.240;2023-11-21T06:36:31;38.70;;;23.75;;
80653;SDS011;70020;45.524;10.240;2023-11-21T06:38:57;35.42;;;23.40;;
80653;SDS011;70020;45.524;10.240;2023-11-21T06:41:24;36.92;;;23.40;;
80653;SDS011;70020;45.524;10.240;2023-11-21T06:43:50;35.40;;;22.95;;
80653;SDS011;70020;45.524;10.240;2023-11-21T06:46:16;37.10;;;23.63;;
80653;SDS011;70020;45.524;10.240;2023-11-21T06:48:42;38.08;;;22.98;;
80653;SDS011;70020;45.524;10.240;2023-11-21T06:51:08;34.07;;;23.43;;
80653;SDS011;70020;45.524;10.240;2023-11-21T06:53:34;34.67;;;22.48;;
80653;SDS011;70020;45.524;10.240;2023-11-21T06:56:02;38.58;;;23.52;;
80653;SDS011;70020;45.524;10.240;2023-11-21T06:58:28;34.70;;;23.13;;
80653;SDS011;70020;45.524;10.240;2023-11-21T07:00:53;35.73;;;23.37;;
80653;SDS011;70020;45.524;10.240;2023-11-21T07:03:19;34.67;;;22.10;;
80653;SDS011;70020;45.524;10.240;2023-11-21T07:05:45;42.53;;;22.63;;
80653;SDS011;70020;45.524;10.240;2023-11-21T07:08:11;36.97;;;23.30;;
80653;SDS011;70020;45.524;10.240;2023-11-21T07:10:37;36.60;;;23.30;;
80653;SDS011;70020;45.524;10.240;2023-11-21T07:13:04;34.45;;;22.88;;
80653;SDS011;70020;45.524;10.240;2023-11-21T07:15:29;36.65;;;22.65;;
80653;SDS011;70020;45.524;10.240;2023-11-21T07:17:55;39.78;;;22.83;;
80653;SDS011;70020;45.524;10.240;2023-11-21T07:20:21;35.25;;;22.92;;
80653;SDS011;70020;45.524;10.240;2023-11-21T07:22:47;35.83;;;22.25;;
80653;SDS011;70020;45.524;10.240;2023-11-21T07:25:14;35.22;;;23.13;;
80653;SDS011;70020;45.524;10.240;2023-11-21T07:30:07;34.40;;;23.02;;
80653;SDS011;70020;45.524;10.240;2023-11-21T07:32:35;36.70;;;23.42;;
80653;SDS011;70020;45.524;10.240;2023-11-21T07:35:01;43.15;;;26.77;;
80653;SDS011;70020;45.524;10.240;2023-11-21T07:37:28;43.45;;;27.58;;
80653;SDS011;70020;45.524;10.240;2023-11-21T07:39:53;44.23;;;27.87;;
80653;SDS011;70020;45.524;10.240;2023-11-21T07:42:21;43.35;;;27.77;;
80653;SDS011;70020;45.524;10.240;2023-11-21T07:44:49;44.10;;;27.95;;
80653;SDS011;70020;45.524;10.240;2023-11-21T07:47:15;42.60;;;28.00;;
80653;SDS011;70020;45.524;10.240;2023-11-21T07:49:41;46.15;;;29.17;;
80653;SDS011;70020;45.524;10.240;2023-11-21T07:52:09;47.67;;;30.35;;
80653;SDS011;70020;45.524;10.240;2023-11-21T07:54:35;49.30;;;27.90;;
80653;SDS011;70020;45.524;10.240;2023-11-21T07:57:01;46.33;;;29.23;;
80653;SDS011;70020;45.524;10.240;2023-11-21T07:59:27;45.55;;;29.95;;
80653;SDS011;70020;45.524;10.240;2023-11-21T08:01:53;46.97;;;30.20;;
80653;SDS011;70020;45.524;10.240;2023-11-21T08:04:20;50.65;;;29.38;;
80653;SDS011;70020;45.524;10.240;2023-11-21T08:06:46;51.60;;;29.55;;
80653;SDS011;70020;45.524;10.240;2023-11-21T08:09:12;53.10;;;30.08;;
80653;SDS011;70020;45.524;10.240;2023-11-21T08:11:38;46.38;;;29.85;;
80653;SDS011;70020;45.524;10.240;2023-11-21T08:14:04;45.97;;;28.90;;
80653;SDS011;70020;45.524;10.240;2023-11-21T08:16:30;43.35;;;28.15;;
80653;SDS011;70020;45.524;10.240;2023-11-21T08:18:56;46.73;;;26.93;;
80653;SDS011;70020;45.524;10.240;2023-11-21T08:21:22;46.17;;;26.25;;
80653;SDS011;70020;45.524;10.240;2023-11-21T08:23:52;40.90;;;26.25;;
80653;SDS011;70020;45.524;10.240;2023-11-21T08:26:25;41.83;;;26.20;;
80653;SDS011;70020;45.524;10.240;2023-11-21T08:28:51;37.10;;;25.23;;
80653;SDS011;70020;45.524;10.240;2023-11-21T08:31:27;41.97;;;26.45;;
80653;SDS011;70020;45.524;10.240;2023-11-21T08:33:54;41.85;;;25.85;;
80653;SDS011;70020;45.524;10.240;2023-11-21T08:36:20;37.80;;;24.85;;
80653;SDS011;70020;45.524;10.240;2023-11-21T08:38:49;35.55;;;24.98;;
80653;SDS011;70020;45.524;10.240;2023-11-21T08:41:20;38.50;;;25.92;;
80653;SDS011;70020;45.524;10.240;2023-11-21T08:43:51;42.08;;;26.02;;
80653;SDS011;70020;45.524;10.240;2023-11-21T08:46:18;42.67;;;26.23;;
80653;SDS011;70020;45.524;10.240;2023-11-21T08:48:44;40.67;;;25.02;;
80653;SDS011;70020;45.524;10.240;2023-11-21T08:51:11;38.00;;;25.80;;
80653;SDS011;70020;45.524;10.240;2023-11-21T08:53:36;41.13;;;26.15;;
80653;SDS011;70020;45.524;10.240;2023-11-21T08:56:02;34.47;;;24.48;;
80653;SDS011;70020;45.524;10.240;2023-11-21T08:58:29;40.72;;;26.83;;
80653;SDS011;70020;45.524;10.240;2023-11-21T09:00:57;39.72;;;26.55;;
80653;SDS011;70020;45.524;10.240;2023-11-21T09:03:23;45.30;;;25.95;;
80653;SDS011;70020;45.524;10.240;2023-11-21T09:05:48;38.85;;;27.00;;
80653;SDS011;70020;45.524;10.240;2023-11-21T09:08:14;39.28;;;26.35;;
80653;SDS011;70020;45.524;10.240;2023-11-21T09:10:42;39.10;;;23.95;;
80653;SDS011;70020;45.524;10.240;2023-11-21T09:13:12;38.88;;;25.67;;
80653;SDS011;70020;45.524;10.240;2023-11-21T09:15:38;40.17;;;26.10;;
80653;SDS011;70020;45.524;10.240;2023-11-21T09:18:05;37.65;;;24.88;;
80653;SDS011;70020;45.524;10.240;2023-11-21T09:20:30;34.73;;;22.57;;
80653;SDS011;70020;45.524;10.240;2023-11-21T09:22:56;38.70;;;22.30;;
80653;SDS011;70020;45.524;10.240;2023-11-21T09:25:22;38.57;;;23.33;;
80653;SDS011;70020;45.524;10.240;2023-11-21T09:27:47;35.20;;;22.70;;
80653;SDS011;70020;45.524;10.240;2023-11-21T09:30:13;40.67;;;23.95;;
80653;SDS011;70020;45.524;10.240;2023-11-21T09:32:42;36.08;;;23.40;;
80653;SDS011;70020;45.524;10.240;2023-11-21T09:35:10;33.75;;;22.23;;
80653;SDS011;70020;45.524;10.240;2023-11-21T09:37:37;36.55;;;23.90;;
80653;SDS011;70020;45.524;10.240;2023-11-21T09:40:04;37.85;;;24.35;;
80653;SDS011;70020;45.524;10.240;2023-11-21T09:42:38;37.55;;;24.15;;
80653;SDS011;70020;45.524;10.240;2023-11-21T09:47:38;34.95;;;24.10;;
80653;SDS011;70020;45.524;10.240;2023-11-21T09:50:04;39.92;;;25.25;;
80653;SDS011;70020;45.524;10.240;2023-11-21T09:52:33;39.80;;;25.75;;
80653;SDS011;70020;45.524;10.240;2023-11-21T09:55:15;37.65;;;23.67;;
80653;SDS011;70020;45.524;10.240;2023-11-21T09:57:44;37.72;;;23.35;;
80653;SDS011;70020;45.524;10.240;2023-11-21T10:02:37;38.25;;;23.55;;
80653;SDS011;70020;45.524;10.240;2023-11-21T10:05:05;38.78;;;23.98;;
80653;SDS011;70020;45.524;10.240;2023-11-21T10:09:59;37.33;;;25.15;;
80653;SDS011;70020;45.524;10.240;2023-11-21T10:12:26;39.33;;;27.02;;
80653;SDS011;70020;45.524;10.240;2023-11-21T10:14:54;40.65;;;27.45;;
80653;SDS011;70020;45.524;10.240;2023-11-21T10:17:22;40.30;;;27.98;;
80653;SDS011;70020;45.524;10.240;2023-11-21T10:19:51;42.83;;;29.00;;
80653;SDS011;70020;45.524;10.240;2023-11-21T10:22:18;42.53;;;28.25;;
80653;SDS011;70020;45.524;10.240;2023-11-21T10:24:46;38.60;;;26.50;;
80653;SDS011;70020;45.524;10.240;2023-11-21T10:27:11;39.43;;;26.63;;
80653;SDS011;70020;45.524;10.240;2023-11-21T10:29:38;41.83;;;28.20;;
80653;SDS011;70020;45.524;10.240;2023-11-21T10:32:05;41.38;;;27.38;;
80653;SDS011;70020;45.524;10.240;2023-11-21T10:34:31;41.88;;;27.88;;
80653;SDS011;70020;45.524;10.240;2023-11-21T10:36:59;39.90;;;27.08;;
80653;SDS011;70020;45.524;10.240;2023-11-21T10:39:36;42.30;;;27.63;;
80653;SDS011;70020;45.524;10.240;2023-11-21T10:42:04;39.95;;;26.58;;
80653;SDS011;70020;45.524;10.240;2023-11-21T10:44:33;39.63;;;26.45;;
80653;SDS011;70020;45.524;10.240;2023-11-21T10:49:26;36.35;;;25.40;;
80653;SDS011;70020;45.524;10.240;2023-11-21T10:52:12;41.30;;;26.20;;
80653;SDS011;70020;45.524;10.240;2023-11-21T10:54:42;40.85;;;26.40;;
80653;SDS011;70020;45.524;10.240;2023-11-21T10:57:08;38.90;;;25.30;;
80653;SDS011;70020;45.524;10.240;2023-11-21T10:59:35;40.70;;;25.63;;
80653;SDS011;70020;45.524;10.240;2023-11-21T11:02:03;39.58;;;25.02;;
80653;SDS011;70020;45.524;10.240;2023-11-21T11:04:47;44.28;;;24.60;;
80653;SDS011;70020;45.524;10.240;2023-11-21T11:07:13;38.42;;;25.05;;
80653;SDS011;70020;45.524;10.240;2023-11-21T11:09:41;38.88;;;24.83;;
80653;SDS011;70020;45.524;10.240;2023-11-21T11:12:09;40.28;;;25.35;;
80653;SDS011;70020;45.524;10.240;2023-11-21T11:14:36;35.08;;;24.90;;
80653;SDS011;70020;45.524;10.240;2023-11-21T11:17:02;38.25;;;23.83;;
80653;SDS011;70020;45.524;10.240;2023-11-21T11:19:30;35.33;;;23.58;;
80653;SDS011;70020;45.524;10.240;2023-11-21T11:33:34;32.20;;;22.83;;
80653;SDS011;70020;45.524;10.240;2023-11-21T11:36:00;36.65;;;23.85;;
80653;SDS011;70020;45.524;10.240;2023-11-21T11:38:45;39.53;;;25.45;;
80653;SDS011;70020;45.524;10.240;2023-11-21T11:41:11;45.67;;;26.83;;
80653;SDS011;70020;45.524;10.240;2023-11-21T11:43:38;41.92;;;27.90;;
80653;SDS011;70020;45.524;10.240;2023-11-21T11:46:10;44.70;;;29.40;;
80653;SDS011;70020;45.524;10.240;2023-11-21T11:48:39;49.15;;;31.02;;
80653;SDS011;70020;45.524;10.240;2023-11-21T11:51:12;43.60;;;29.42;;
80653;SDS011;70020;45.524;10.240;2023-11-21T11:53:46;49.17;;;30.23;;
80653;SDS011;70020;45.524;10.240;2023-11-21T11:56:29;47.03;;;30.23;;
80653;SDS011;70020;45.524;10.240;2023-11-21T11:58:58;48.05;;;30.40;;
80653;SDS011;70020;45.524;10.240;2023-11-21T12:01:25;43.30;;;29.00;;
80653;SDS011;70020;45.524;10.240;2023-11-21T12:06:42;44.30;;;30.20;;
80653;SDS011;70020;45.524;10.240;2023-11-21T12:09:17;45.00;;;29.55;;
80653;SDS011;70020;45.524;10.240;2023-11-21T12:11:48;44.05;;;29.33;;
80653;SDS011;70020;45.524;10.240;2023-11-21T12:14:14;52.35;;;31.92;;
80653;SDS011;70020;45.524;10.240;2023-11-21T12:16:44;44.28;;;30.42;;
80653;SDS011;70020;45.524;10.240;2023-11-21T12:19:11;47.88;;;30.75;;
80653;SDS011;70020;45.524;10.240;2023-11-21T12:21:37;50.88;;;31.17;;
80653;SDS011;70020;45.524;10.240;2023-11-21T12:24:03;49.13;;;31.73;;
80653;SDS011;70020;45.524;10.240;2023-11-21T12:26:29;43.65;;;31.08;;
80653;SDS011;70020;45.524;10.240;2023-11-21T12:28:55;48.53;;;31.23;;
80653;SDS011;70020;45.524;10.240;2023-11-21T12:31:23;55.08;;;32.92;;
80653;SDS011;70020;45.524;10.240;2023-11-21T12:33:49;51.55;;;32.20;;
80653;SDS011;70020;45.524;10.240;2023-11-21T12:36:19;53.05;;;35.25;;
80653;SDS011;70020;45.524;10.240;2023-11-21T12:38:44;52.63;;;35.25;;
80653;SDS011;70020;45.524;10.240;2023-11-21T12:41:11;56.33;;;35.60;;
80653;SDS011;70020;45.524;10.240;2023-11-21T12:43:37;51.92;;;35.00;;
80653;SDS011;70020;45.524;10.240;2023-11-21T12:46:08;57.10;;;35.15;;
80653;SDS011;70020;45.524;10.240;2023-11-21T12:48:37;53.70;;;34.53;;
80653;SDS011;70020;45.524;10.240;2023-11-21T12:51:09;53.40;;;34.22;;
80653;SDS011;70020;45.524;10.240;2023-11-21T12:53:37;52.92;;;34.60;;
80653;SDS011;70020;45.524;10.240;2023-11-21T12:56:21;59.00;;;36.17;;
80653;SDS011;70020;45.524;10.240;2023-11-21T12:58:48;60.25;;;40.78;;
80653;SDS011;70020;45.524;10.240;2023-11-21T13:01:15;54.03;;;35.22;;
80653;SDS011;70020;45.524;10.240;2023-11-21T13:03:46;53.28;;;34.25;;
80653;SDS011;70020;45.524;10.240;2023-11-21T13:06:13;49.72;;;34.08;;
80653;SDS011;70020;45.524;10.240;2023-11-21T13:08:40;56.10;;;34.55;;
80653;SDS011;70020;45.524;10.240;2023-11-21T13:11:06;51.03;;;34.83;;
80653;SDS011;70020;45.524;10.240;2023-11-21T13:13:32;53.58;;;35.83;;
80653;SDS011;70020;45.524;10.240;2023-11-21T13:16:01;55.55;;;35.88;;
80653;SDS011;70020;45.524;10.240;2023-11-21T13:18:33;52.97;;;34.28;;
80653;SDS011;70020;45.524;10.240;2023-11-21T13:23:28;55.53;;;34.03;;
80653;SDS011;70020;45.524;10.240;2023-11-21T13:25:54;52.13;;;33.05;;
80653;SDS011;70020;45.524;10.240;2023-11-21T13:28:20;51.45;;;32.95;;
80653;SDS011;70020;45.524;10.240;2023-11-21T13:30:48;58.45;;;33.95;;
80653;SDS011;70020;45.524;10.240;2023-11-21T13:33:17;53.03;;;33.00;;
80653;SDS011;70020;45.524;10.240;2023-11-21T13:35:46;49.15;;;32.35;;
80653;SDS011;70020;45.524;10.240;2023-11-21T13:38:14;53.45;;;33.65;;
80653;SDS011;70020;45.524;10.240;2023-11-21T13:40:47;57.38;;;33.53;;
80653;SDS011;70020;45.524;10.240;2023-11-21T13:43:19;53.13;;;33.30;;
80653;SDS011;70020;45.524;10.240;2023-11-21T13:45:47;49.75;;;33.72;;
80653;SDS011;70020;45.524;10.240;2023-11-21T13:48:23;50.92;;;32.33;;
80653;SDS011;70020;45.524;10.240;2023-11-21T13:51:06;51.58;;;32.97;;
80653;SDS011;70020;45.524;10.240;2023-11-21T13:53:46;50.72;;;33.30;;
80653;SDS011;70020;45.524;10.240;2023-11-21T13:56:14;53.50;;;35.03;;
80653;SDS011;70020;45.524;10.240;2023-11-21T13:58:45;49.67;;;33.42;;
80653;SDS011;70020;45.524;10.240;2023-11-21T14:01:20;52.63;;;33.30;;
80653;SDS011;70020;45.524;10.240;2023-11-21T14:03:56;54.05;;;35.85;;
80653;SDS011;70020;45.524;10.240;2023-11-21T14:06:28;48.60;;;32.25;;
80653;SDS011;70020;45.524;10.240;2023-11-21T14:08:59;55.55;;;33.95;;
80653;SDS011;70020;45.524;10.240;2023-11-21T14:11:31;50.70;;;32.28;;
80653;SDS011;70020;45.524;10.240;2023-11-21T14:13:57;52.40;;;32.60;;
80653;SDS011;70020;45.524;10.240;2023-11-21T14:16:24;38.72;;;26.40;;
80653;SDS011;70020;45.524;10.240;2023-11-21T14:18:50;31.67;;;22.23;;
80653;SDS011;70020;45.524;10.240;2023-11-21T14:21:26;37.55;;;24.88;;
80653;SDS011;70020;45.524;10.240;2023-11-21T14:23:52;39.03;;;24.77;;
80653;SDS011;70020;45.524;10.240;2023-11-21T14:26:19;37.40;;;22.23;;
80653;SDS011;70020;45.524;10.240;2023-11-21T14:28:45;27.98;;;18.00;;
80653;SDS011;70020;45.524;10.240;2023-11-21T14:31:13;25.20;;;16.17;;
80653;SDS011;70020;45.524;10.240;2023-11-21T14:33:42;27.38;;;13.85;;
80653;SDS011;70020;45.524;10.240;2023-11-21T14:36:07;22.90;;;14.15;;
80653;SDS011;70020;45.524;10.240;2023-11-21T14:38:35;25.80;;;14.40;;
80653;SDS011;70020;45.524;10.240;2023-11-21T14:41:02;23.38;;;13.63;;
80653;SDS011;70020;45.524;10.240;2023-11-21T14:43:29;22.52;;;13.50;;
80653;SDS011;70020;45.524;10.240;2023-11-21T14:45:59;27.00;;;14.07;;
80653;SDS011;70020;45.524;10.240;2023-11-21T14:48:24;25.10;;;14.55;;
80653;SDS011;70020;45.524;10.240;2023-11-21T14:51:09;27.08;;;13.68;;
80653;SDS011;70020;45.524;10.240;2023-11-21T14:53:40;25.33;;;13.90;;
80653;SDS011;70020;45.524;10.240;2023-11-21T14:56:19;27.80;;;16.38;;
80653;SDS011;70020;45.524;10.240;2023-11-21T14:58:59;39.55;;;22.65;;
80653;SDS011;70020;45.524;10.240;2023-11-21T15:01:47;40.60;;;26.08;;